sensor_id;sensor_type;location;lat;lon;timestamp;P1;durP1;ratioP1;P2;durP2;ratioP2
54787;SDS011;59598;48.112;16.280;2024-01-10T00:00:36;41.93;;;20.20;;
54787;SDS011;59598;48.112;16.280;2024-01-10T00:03:09;53.00;;;21.50;;
54787;SDS011;59598;48.112;16.280;2024-01-10T00:05:49;43.63;;;18.97;;
54787;SDS011;59598;48.112;16.280;2024-01-10T00:08:26;43.10;;;19.60;;
54787;SDS011;59598;48.112;16.280;2024-01-10T00:10:57;43.77;;;21.03;;
54787;SDS011;59598;48.112;16.280;2024-01-10T00:13:29;46.77;;;22.13;;
54787;SDS011;59598;48.112;16.280;2024-01-10T00:16:02;45.73;;;21.07;;
54787;SDS011;59598;48.112;16.280;2024-01-10T00:18:34;47.40;;;21.73;;
54787;SDS011;59598;48.112;16.280;2024-01-10T00:21:05;44.07;;;20.47;;
54787;SDS011;59598;48.112;16.280;2024-01-10T00:23:40;40.63;;;19.97;;
54787;SDS011;59598;48.112;16.280;2024-01-10T00:28:50;46.95;;;20.48;;
54787;SDS011;59598;48.112;16.280;2024-01-10T00:31:21;40.10;;;20.27;;
54787;SDS011;59598;48.112;16.280;2024-01-10T00:34:00;42.07;;;19.27;;
54787;SDS011;59598;48.112;16.280;2024-01-10T00:36:36;42.87;;;19.27;;
54787;SDS011;59598;48.112;16.280;2024-01-10T00:39:09;52.42;;;21.67;;
54787;SDS011;59598;48.112;16.280;2024-01-10T00:41:44;48.83;;;20.83;;
54787;SDS011;59598;48.112;16.280;2024-01-10T00:44:15;47.07;;;20.60;;
54787;SDS011;59598;48.112;16.280;2024-01-10T00:49:20;43.50;;;19.13;;
54787;SDS011;59598;48.112;16.280;2024-01-10T00:51:53;47.92;;;21.27;;
54787;SDS011;59598;48.112;16.280;2024-01-10T00:54:27;47.42;;;20.55;;
54787;SDS011;59598;48.112;16.280;2024-01-10T00:56:58;47.40;;;20.73;;
54787;SDS011;59598;48.112;16.280;2024-01-10T00:59:29;42.90;;;21.10;;
54787;SDS011;59598;48.112;16.280;2024-01-10T01:02:00;42.53;;;19.17;;
54787;SDS011;59598;48.112;16.280;2024-01-10T01:04:32;43.43;;;20.73;;
54787;SDS011;59598;48.112;16.280;2024-01-10T01:07:08;46.00;;;20.70;;
54787;SDS011;59598;48.112;16.280;2024-01-10T01:12:13;40.60;;;20.77;;
54787;SDS011;59598;48.112;16.280;2024-01-10T01:14:49;45.08;;;20.15;;
54787;SDS011;59598;48.112;16.280;2024-01-10T01:17:20;52.08;;;20.80;;
54787;SDS011;59598;48.112;16.280;2024-01-10T01:19:51;52.73;;;21.90;;
54787;SDS011;59598;48.112;16.280;2024-01-10T01:22:26;48.33;;;22.50;;
54787;SDS011;59598;48.112;16.280;2024-01-10T01:24:59;47.17;;;22.23;;
54787;SDS011;59598;48.112;16.280;2024-01-10T01:27:33;51.57;;;21.77;;
54787;SDS011;59598;48.112;16.280;2024-01-10T01:30:04;49.73;;;22.97;;
54787;SDS011;59598;48.112;16.280;2024-01-10T01:32:36;49.57;;;21.97;;
54787;SDS011;59598;48.112;16.280;2024-01-10T01:35:08;47.63;;;20.60;;
54787;SDS011;59598;48.112;16.280;2024-01-10T01:40:12;45.77;;;21.60;;
54787;SDS011;59598;48.112;16.280;2024-01-10T01:42:46;47.23;;;22.33;;
54787;SDS011;59598;48.112;16.280;2024-01-10T01:45:18;47.83;;;22.03;;
54787;SDS011;59598;48.112;16.280;2024-01-10T01:47:52;44.25;;;19.50;;
54787;SDS011;59598;48.112;16.280;2024-01-10T01:50:29;49.40;;;21.93;;
54787;SDS011;59598;48.112;16.280;2024-01-10T01:53:05;50.58;;;21.98;;
54787;SDS011;59598;48.112;16.280;2024-01-10T01:55:39;47.67;;;21.00;;
54787;SDS011;59598;48.112;16.280;2024-01-10T01:58:12;42.22;;;20.55;;
54787;SDS011;59598;48.112;16.280;2024-01-10T02:00:43;45.83;;;20.67;;
54787;SDS011;59598;48.112;16.280;2024-01-10T02:03:15;50.93;;;21.43;;
54787;SDS011;59598;48.112;16.280;2024-01-10T02:05:47;50.10;;;22.87;;
54787;SDS011;59598;48.112;16.280;2024-01-10T02:08:18;46.03;;;21.40;;
54787;SDS011;59598;48.112;16.280;2024-01-10T02:10:52;45.83;;;21.33;;
54787;SDS011;59598;48.112;16.280;2024-01-10T02:13:23;52.83;;;22.60;;
54787;SDS011;59598;48.112;16.280;2024-01-10T02:15:55;53.67;;;23.13;;
54787;SDS011;59598;48.112;16.280;2024-01-10T02:18:28;49.60;;;23.15;;
54787;SDS011;59598;48.112;16.280;2024-01-10T02:21:01;56.70;;;23.80;;
54787;SDS011;59598;48.112;16.280;2024-01-10T02:23:33;51.60;;;23.03;;
54787;SDS011;59598;48.112;16.280;2024-01-10T02:26:06;50.20;;;23.73;;
54787;SDS011;59598;48.112;16.280;2024-01-10T02:28:43;50.80;;;24.53;;
54787;SDS011;59598;48.112;16.280;2024-01-10T02:33:48;46.47;;;24.30;;
54787;SDS011;59598;48.112;16.280;2024-01-10T02:36:22;48.87;;;23.03;;
54787;SDS011;59598;48.112;16.280;2024-01-10T02:38:59;57.53;;;24.07;;
54787;SDS011;59598;48.112;16.280;2024-01-10T02:41:30;56.43;;;25.37;;
54787;SDS011;59598;48.112;16.280;2024-01-10T02:44:01;54.47;;;25.40;;
54787;SDS011;59598;48.112;16.280;2024-01-10T02:46:33;53.23;;;24.57;;
54787;SDS011;59598;48.112;16.280;2024-01-10T02:49:04;51.43;;;25.00;;
54787;SDS011;59598;48.112;16.280;2024-01-10T02:51:35;57.97;;;25.47;;
54787;SDS011;59598;48.112;16.280;2024-01-10T02:54:09;57.08;;;25.63;;
54787;SDS011;59598;48.112;16.280;2024-01-10T02:56:48;53.20;;;23.63;;
54787;SDS011;59598;48.112;16.280;2024-01-10T02:59:20;47.27;;;22.40;;
54787;SDS011;59598;48.112;16.280;2024-01-10T03:01:57;54.33;;;23.47;;
54787;SDS011;59598;48.112;16.280;2024-01-10T03:04:31;55.07;;;24.27;;
54787;SDS011;59598;48.112;16.280;2024-01-10T03:07:05;57.37;;;26.00;;
54787;SDS011;59598;48.112;16.280;2024-01-10T03:09:39;53.63;;;23.70;;
54787;SDS011;59598;48.112;16.280;2024-01-10T03:12:11;52.47;;;24.27;;
54787;SDS011;59598;48.112;16.280;2024-01-10T03:14:45;56.73;;;25.93;;
54787;SDS011;59598;48.112;16.280;2024-01-10T03:17:17;56.90;;;25.23;;
54787;SDS011;59598;48.112;16.280;2024-01-10T03:19:51;56.38;;;25.23;;
54787;SDS011;59598;48.112;16.280;2024-01-10T03:22:22;62.57;;;28.07;;
54787;SDS011;59598;48.112;16.280;2024-01-10T03:24:56;60.53;;;26.00;;
54787;SDS011;59598;48.112;16.280;2024-01-10T03:27:28;61.67;;;27.80;;
54787;SDS011;59598;48.112;16.280;2024-01-10T03:30:03;56.50;;;25.53;;
54787;SDS011;59598;48.112;16.280;2024-01-10T03:32:34;57.97;;;25.70;;
54787;SDS011;59598;48.112;16.280;2024-01-10T03:35:08;58.67;;;26.20;;
54787;SDS011;59598;48.112;16.280;2024-01-10T03:37:39;57.17;;;26.13;;
54787;SDS011;59598;48.112;16.280;2024-01-10T03:40:17;56.50;;;26.33;;
54787;SDS011;59598;48.112;16.280;2024-01-10T03:42:48;56.80;;;25.97;;
54787;SDS011;59598;48.112;16.280;2024-01-10T03:45:21;58.80;;;27.73;;
54787;SDS011;59598;48.112;16.280;2024-01-10T03:47:53;61.43;;;26.10;;
54787;SDS011;59598;48.112;16.280;2024-01-10T03:50:25;62.70;;;27.80;;
54787;SDS011;59598;48.112;16.280;2024-01-10T03:53:23;57.27;;;26.10;;
54787;SDS011;59598;48.112;16.280;2024-01-10T03:55:57;58.50;;;27.37;;
54787;SDS011;59598;48.112;16.280;2024-01-10T03:58:28;56.23;;;26.43;;
54787;SDS011;59598;48.112;16.280;2024-01-10T04:01:07;46.30;;;21.23;;
54787;SDS011;59598;48.112;16.280;2024-01-10T04:03:43;54.23;;;23.37;;
54787;SDS011;59598;48.112;16.280;2024-01-10T04:06:15;55.47;;;26.20;;
54787;SDS011;59598;48.112;16.280;2024-01-10T04:08:51;55.67;;;26.97;;
54787;SDS011;59598;48.112;16.280;2024-01-10T04:11:24;57.15;;;26.75;;
54787;SDS011;59598;48.112;16.280;2024-01-10T04:13:58;58.77;;;26.37;;
54787;SDS011;59598;48.112;16.280;2024-01-10T04:16:32;62.30;;;28.67;;
54787;SDS011;59598;48.112;16.280;2024-01-10T04:19:04;54.53;;;26.20;;
54787;SDS011;59598;48.112;16.280;2024-01-10T04:21:37;66.93;;;26.50;;
54787;SDS011;59598;48.112;16.280;2024-01-10T04:24:08;65.27;;;27.50;;
54787;SDS011;59598;48.112;16.280;2024-01-10T04:26:47;57.50;;;25.53;;
54787;SDS011;59598;48.112;16.280;2024-01-10T04:29:22;62.77;;;28.53;;
54787;SDS011;59598;48.112;16.280;2024-01-10T04:31:59;61.10;;;29.03;;
54787;SDS011;59598;48.112;16.280;2024-01-10T04:34:33;61.80;;;28.00;;
54787;SDS011;59598;48.112;16.280;2024-01-10T04:37:07;66.73;;;29.73;;
54787;SDS011;59598;48.112;16.280;2024-01-10T04:39:41;68.07;;;30.13;;
54787;SDS011;59598;48.112;16.280;2024-01-10T04:44:48;65.57;;;30.63;;
54787;SDS011;59598;48.112;16.280;2024-01-10T04:47:20;68.33;;;32.13;;
54787;SDS011;59598;48.112;16.280;2024-01-10T04:49:55;69.13;;;32.00;;
54787;SDS011;59598;48.112;16.280;2024-01-10T04:52:30;67.90;;;32.00;;
54787;SDS011;59598;48.112;16.280;2024-01-10T04:55:01;68.83;;;31.57;;
54787;SDS011;59598;48.112;16.280;2024-01-10T04:57:33;62.73;;;31.70;;
54787;SDS011;59598;48.112;16.280;2024-01-10T05:00:05;66.93;;;30.10;;
54787;SDS011;59598;48.112;16.280;2024-01-10T05:02:38;72.30;;;30.10;;
54787;SDS011;59598;48.112;16.280;2024-01-10T05:05:16;67.37;;;30.47;;
54787;SDS011;59598;48.112;16.280;2024-01-10T05:07:56;66.90;;;30.53;;
54787;SDS011;59598;48.112;16.280;2024-01-10T05:10:36;66.10;;;31.27;;
54787;SDS011;59598;48.112;16.280;2024-01-10T05:13:10;65.00;;;28.70;;
54787;SDS011;59598;48.112;16.280;2024-01-10T05:15:41;66.27;;;30.00;;
54787;SDS011;59598;48.112;16.280;2024-01-10T05:18:16;72.57;;;29.93;;
54787;SDS011;59598;48.112;16.280;2024-01-10T05:20:47;65.67;;;29.17;;
54787;SDS011;59598;48.112;16.280;2024-01-10T05:23:18;65.60;;;27.90;;
54787;SDS011;59598;48.112;16.280;2024-01-10T05:25:50;69.87;;;29.67;;
54787;SDS011;59598;48.112;16.280;2024-01-10T05:28:26;68.97;;;31.48;;
54787;SDS011;59598;48.112;16.280;2024-01-10T05:33:28;77.40;;;33.17;;
54787;SDS011;59598;48.112;16.280;2024-01-10T05:36:00;67.03;;;32.77;;
54787;SDS011;59598;48.112;16.280;2024-01-10T05:38:36;74.50;;;33.90;;
54787;SDS011;59598;48.112;16.280;2024-01-10T05:41:10;70.23;;;30.63;;
54787;SDS011;59598;48.112;16.280;2024-01-10T05:43:41;79.15;;;34.20;;
54787;SDS011;59598;48.112;16.280;2024-01-10T05:46:17;70.70;;;32.60;;
54787;SDS011;59598;48.112;16.280;2024-01-10T05:48:54;72.90;;;32.13;;
54787;SDS011;59598;48.112;16.280;2024-01-10T05:51:27;68.38;;;30.30;;
54787;SDS011;59598;48.112;16.280;2024-01-10T05:54:08;73.13;;;32.67;;
54787;SDS011;59598;48.112;16.280;2024-01-10T05:56:42;72.93;;;29.97;;
54787;SDS011;59598;48.112;16.280;2024-01-10T05:59:16;73.27;;;31.93;;
54787;SDS011;59598;48.112;16.280;2024-01-10T06:01:47;80.97;;;36.13;;
54787;SDS011;59598;48.112;16.280;2024-01-10T06:04:21;77.15;;;30.98;;
54787;SDS011;59598;48.112;16.280;2024-01-10T06:06:52;70.20;;;30.47;;
54787;SDS011;59598;48.112;16.280;2024-01-10T06:09:29;66.93;;;29.90;;
54787;SDS011;59598;48.112;16.280;2024-01-10T06:12:01;62.97;;;30.20;;
54787;SDS011;59598;48.112;16.280;2024-01-10T06:14:32;72.43;;;32.37;;
54787;SDS011;59598;48.112;16.280;2024-01-10T06:17:03;76.27;;;33.23;;
54787;SDS011;59598;48.112;16.280;2024-01-10T06:19:35;81.60;;;35.30;;
54787;SDS011;59598;48.112;16.280;2024-01-10T06:22:07;78.30;;;36.10;;
54787;SDS011;59598;48.112;16.280;2024-01-10T06:24:45;76.13;;;34.07;;
54787;SDS011;59598;48.112;16.280;2024-01-10T06:27:20;75.40;;;33.07;;
54787;SDS011;59598;48.112;16.280;2024-01-10T06:29:53;69.60;;;33.83;;
54787;SDS011;59598;48.112;16.280;2024-01-10T06:32:26;73.97;;;30.97;;
54787;SDS011;59598;48.112;16.280;2024-01-10T06:34:59;73.03;;;31.57;;
54787;SDS011;59598;48.112;16.280;2024-01-10T06:37:31;67.07;;;30.30;;
54787;SDS011;59598;48.112;16.280;2024-01-10T06:40:03;73.43;;;31.50;;
54787;SDS011;59598;48.112;16.280;2024-01-10T06:42:37;73.47;;;31.03;;
54787;SDS011;59598;48.112;16.280;2024-01-10T06:45:09;76.67;;;30.23;;
54787;SDS011;59598;48.112;16.280;2024-01-10T06:47:42;82.07;;;34.15;;
54787;SDS011;59598;48.112;16.280;2024-01-10T06:50:13;86.23;;;36.77;;
54787;SDS011;59598;48.112;16.280;2024-01-10T06:52:44;75.70;;;36.23;;
54787;SDS011;59598;48.112;16.280;2024-01-10T06:55:21;72.23;;;34.10;;
54787;SDS011;59598;48.112;16.280;2024-01-10T06:57:55;72.80;;;33.37;;
54787;SDS011;59598;48.112;16.280;2024-01-10T07:00:35;69.50;;;31.57;;
54787;SDS011;59598;48.112;16.280;2024-01-10T07:03:08;71.78;;;32.13;;
54787;SDS011;59598;48.112;16.280;2024-01-10T07:05:40;76.90;;;31.70;;
54787;SDS011;59598;48.112;16.280;2024-01-10T07:08:15;68.43;;;30.83;;
54787;SDS011;59598;48.112;16.280;2024-01-10T07:10:47;79.43;;;35.47;;
54787;SDS011;59598;48.112;16.280;2024-01-10T07:13:21;81.40;;;34.67;;
54787;SDS011;59598;48.112;16.280;2024-01-10T07:15:55;79.30;;;35.37;;
54787;SDS011;59598;48.112;16.280;2024-01-10T07:18:36;89.37;;;32.90;;
54787;SDS011;59598;48.112;16.280;2024-01-10T07:21:08;66.60;;;31.23;;
54787;SDS011;59598;48.112;16.280;2024-01-10T07:23:39;82.73;;;32.63;;
54787;SDS011;59598;48.112;16.280;2024-01-10T07:26:16;72.87;;;32.20;;
54787;SDS011;59598;48.112;16.280;2024-01-10T07:28:48;76.40;;;31.27;;
54787;SDS011;59598;48.112;16.280;2024-01-10T07:31:23;76.60;;;31.70;;
54787;SDS011;59598;48.112;16.280;2024-01-10T07:34:06;68.30;;;31.43;;
54787;SDS011;59598;48.112;16.280;2024-01-10T07:36:43;71.30;;;31.30;;
54787;SDS011;59598;48.112;16.280;2024-01-10T07:39:15;70.93;;;32.70;;
54787;SDS011;59598;48.112;16.280;2024-01-10T07:41:48;75.55;;;30.67;;
54787;SDS011;59598;48.112;16.280;2024-01-10T07:44:20;62.73;;;28.67;;
54787;SDS011;59598;48.112;16.280;2024-01-10T07:46:52;58.43;;;29.50;;
54787;SDS011;59598;48.112;16.280;2024-01-10T07:49:25;65.68;;;30.70;;
54787;SDS011;59598;48.112;16.280;2024-01-10T07:51:59;63.60;;;30.97;;
54787;SDS011;59598;48.112;16.280;2024-01-10T07:54:31;70.30;;;30.80;;
54787;SDS011;59598;48.112;16.280;2024-01-10T07:57:04;78.13;;;32.60;;
54787;SDS011;59598;48.112;16.280;2024-01-10T07:59:38;68.78;;;31.17;;
54787;SDS011;59598;48.112;16.280;2024-01-10T08:02:12;68.93;;;30.58;;
54787;SDS011;59598;48.112;16.280;2024-01-10T08:04:48;56.57;;;29.07;;
54787;SDS011;59598;48.112;16.280;2024-01-10T08:07:25;75.67;;;33.33;;
54787;SDS011;59598;48.112;16.280;2024-01-10T08:09:59;60.17;;;28.00;;
54787;SDS011;59598;48.112;16.280;2024-01-10T08:12:36;68.33;;;31.63;;
54787;SDS011;59598;48.112;16.280;2024-01-10T08:15:12;64.93;;;32.03;;
54787;SDS011;59598;48.112;16.280;2024-01-10T08:17:46;68.70;;;29.87;;
54787;SDS011;59598;48.112;16.280;2024-01-10T08:22:51;69.67;;;31.40;;
54787;SDS011;59598;48.112;16.280;2024-01-10T08:25:25;62.70;;;31.45;;
54787;SDS011;59598;48.112;16.280;2024-01-10T08:27:58;65.88;;;31.65;;
54787;SDS011;59598;48.112;16.280;2024-01-10T08:30:29;66.63;;;31.60;;
54787;SDS011;59598;48.112;16.280;2024-01-10T08:33:01;60.53;;;29.53;;
54787;SDS011;59598;48.112;16.280;2024-01-10T08:35:35;66.93;;;31.00;;
54787;SDS011;59598;48.112;16.280;2024-01-10T08:38:08;59.00;;;29.03;;
54787;SDS011;59598;48.112;16.280;2024-01-10T08:40:41;66.83;;;29.50;;
54787;SDS011;59598;48.112;16.280;2024-01-10T08:43:13;60.53;;;28.97;;
54787;SDS011;59598;48.112;16.280;2024-01-10T08:45:49;62.27;;;26.77;;
54787;SDS011;59598;48.112;16.280;2024-01-10T08:48:24;58.17;;;27.37;;
54787;SDS011;59598;48.112;16.280;2024-01-10T08:50:55;49.33;;;23.40;;
54787;SDS011;59598;48.112;16.280;2024-01-10T08:53:29;50.80;;;24.35;;
54787;SDS011;59598;48.112;16.280;2024-01-10T08:56:06;53.13;;;24.83;;
54787;SDS011;59598;48.112;16.280;2024-01-10T08:58:38;47.20;;;23.27;;
54787;SDS011;59598;48.112;16.280;2024-01-10T09:01:12;53.22;;;24.95;;
54787;SDS011;59598;48.112;16.280;2024-01-10T09:03:43;47.13;;;24.23;;
54787;SDS011;59598;48.112;16.280;2024-01-10T09:06:16;49.45;;;23.85;;
54787;SDS011;59598;48.112;16.280;2024-01-10T09:08:48;46.00;;;20.83;;
54787;SDS011;59598;48.112;16.280;2024-01-10T09:11:20;44.40;;;21.47;;
54787;SDS011;59598;48.112;16.280;2024-01-10T09:13:54;43.43;;;21.63;;
54787;SDS011;59598;48.112;16.280;2024-01-10T09:16:29;40.30;;;19.47;;
54787;SDS011;59598;48.112;16.280;2024-01-10T09:19:01;43.10;;;20.70;;
54787;SDS011;59598;48.112;16.280;2024-01-10T09:21:34;32.03;;;16.10;;
54787;SDS011;59598;48.112;16.280;2024-01-10T09:26:41;45.43;;;21.03;;
54787;SDS011;59598;48.112;16.280;2024-01-10T09:29:16;40.17;;;21.00;;
54787;SDS011;59598;48.112;16.280;2024-01-10T09:31:50;34.75;;;15.02;;
54787;SDS011;59598;48.112;16.280;2024-01-10T09:34:21;28.30;;;13.43;;
54787;SDS011;59598;48.112;16.280;2024-01-10T09:36:53;35.27;;;15.13;;
54787;SDS011;59598;48.112;16.280;2024-01-10T09:39:28;35.80;;;15.47;;
54787;SDS011;59598;48.112;16.280;2024-01-10T09:42:03;28.97;;;16.17;;
54787;SDS011;59598;48.112;16.280;2024-01-10T09:44:37;30.67;;;13.80;;
54787;SDS011;59598;48.112;16.280;2024-01-10T09:47:11;28.45;;;13.40;;
54787;SDS011;59598;48.112;16.280;2024-01-10T09:49:45;41.83;;;15.90;;
54787;SDS011;59598;48.112;16.280;2024-01-10T09:52:29;35.33;;;16.30;;
54787;SDS011;59598;48.112;16.280;2024-01-10T09:55:09;21.60;;;12.90;;
54787;SDS011;59598;48.112;16.280;2024-01-10T09:57:45;18.77;;;10.50;;
54787;SDS011;59598;48.112;16.280;2024-01-10T10:00:21;30.63;;;13.13;;
54787;SDS011;59598;48.112;16.280;2024-01-10T10:02:56;34.50;;;14.73;;
54787;SDS011;59598;48.112;16.280;2024-01-10T10:05:29;24.25;;;12.10;;
54787;SDS011;59598;48.112;16.280;2024-01-10T10:08:06;39.40;;;12.87;;
54787;SDS011;59598;48.112;16.280;2024-01-10T10:10:37;31.87;;;14.50;;
54787;SDS011;59598;48.112;16.280;2024-01-10T10:13:25;32.50;;;14.33;;
54787;SDS011;59598;48.112;16.280;2024-01-10T10:15:58;33.67;;;16.10;;
54787;SDS011;59598;48.112;16.280;2024-01-10T10:18:33;26.23;;;14.48;;
54787;SDS011;59598;48.112;16.280;2024-01-10T10:21:08;32.17;;;14.87;;
54787;SDS011;59598;48.112;16.280;2024-01-10T10:23:56;42.92;;;15.25;;
54787;SDS011;59598;48.112;16.280;2024-01-10T10:26:34;31.40;;;15.32;;
54787;SDS011;59598;48.112;16.280;2024-01-10T10:29:05;43.15;;;17.23;;
54787;SDS011;59598;48.112;16.280;2024-01-10T10:31:37;30.92;;;16.30;;
54787;SDS011;59598;48.112;16.280;2024-01-10T10:34:08;30.77;;;15.80;;
54787;SDS011;59598;48.112;16.280;2024-01-10T10:36:42;37.85;;;16.63;;
54787;SDS011;59598;48.112;16.280;2024-01-10T10:39:17;38.00;;;16.33;;
54787;SDS011;59598;48.112;16.280;2024-01-10T10:41:48;40.65;;;16.58;;
54787;SDS011;59598;48.112;16.280;2024-01-10T10:44:23;34.85;;;17.00;;
54787;SDS011;59598;48.112;16.280;2024-01-10T10:47:04;32.28;;;16.67;;
54787;SDS011;59598;48.112;16.280;2024-01-10T10:49:41;36.65;;;16.55;;
54787;SDS011;59598;48.112;16.280;2024-01-10T10:52:27;38.13;;;16.15;;
54787;SDS011;59598;48.112;16.280;2024-01-10T10:55:03;26.60;;;13.60;;
54787;SDS011;59598;48.112;16.280;2024-01-10T10:57:35;33.40;;;14.25;;
54787;SDS011;59598;48.112;16.280;2024-01-10T11:00:09;33.38;;;16.55;;
54787;SDS011;59598;48.112;16.280;2024-01-10T11:02:46;28.48;;;16.13;;
54787;SDS011;59598;48.112;16.280;2024-01-10T11:05:23;39.47;;;16.65;;
54787;SDS011;59598;48.112;16.280;2024-01-10T11:08:01;32.53;;;17.08;;
54787;SDS011;59598;48.112;16.280;2024-01-10T11:10:35;38.63;;;17.73;;
54787;SDS011;59598;48.112;16.280;2024-01-10T11:18:51;31.48;;;15.20;;
54787;SDS011;59598;48.112;16.280;2024-01-10T11:24:39;32.70;;;16.15;;
54787;SDS011;59598;48.112;16.280;2024-01-10T11:27:15;33.92;;;15.38;;
54787;SDS011;59598;48.112;16.280;2024-01-10T11:29:50;29.50;;;15.38;;
54787;SDS011;59598;48.112;16.280;2024-01-10T11:32:22;36.00;;;16.73;;
54787;SDS011;59598;48.112;16.280;2024-01-10T11:34:58;31.77;;;14.82;;
54787;SDS011;59598;48.112;16.280;2024-01-10T11:37:47;34.42;;;15.95;;
54787;SDS011;59598;48.112;16.280;2024-01-10T11:40:53;31.40;;;14.25;;
54787;SDS011;59598;48.112;16.280;2024-01-10T11:43:20;29.90;;;15.75;;
54787;SDS011;59598;48.112;16.280;2024-01-10T11:45:52;30.30;;;16.42;;
54787;SDS011;59598;48.112;16.280;2024-01-10T11:48:31;31.25;;;16.05;;
54787;SDS011;59598;48.112;16.280;2024-01-10T11:51:06;29.17;;;14.75;;
54787;SDS011;59598;48.112;16.280;2024-01-10T11:53:43;32.50;;;16.33;;
54787;SDS011;59598;48.112;16.280;2024-01-10T11:56:21;34.55;;;14.85;;
54787;SDS011;59598;48.112;16.280;2024-01-10T11:59:00;26.92;;;13.93;;
54787;SDS011;59598;48.112;16.280;2024-01-10T12:01:35;24.80;;;13.43;;
54787;SDS011;59598;48.112;16.280;2024-01-10T12:04:07;30.15;;;14.65;;
54787;SDS011;59598;48.112;16.280;2024-01-10T12:06:40;30.58;;;14.38;;
54787;SDS011;59598;48.112;16.280;2024-01-10T12:09:13;28.95;;;13.52;;
54787;SDS011;59598;48.112;16.280;2024-01-10T12:11:47;26.58;;;15.50;;
54787;SDS011;59598;48.112;16.280;2024-01-10T12:14:22;26.80;;;14.65;;
54787;SDS011;59598;48.112;16.280;2024-01-10T12:16:57;22.17;;;11.98;;
54787;SDS011;59598;48.112;16.280;2024-01-10T12:19:33;30.05;;;13.48;;
54787;SDS011;59598;48.112;16.280;2024-01-10T12:22:05;29.23;;;13.57;;
54787;SDS011;59598;48.112;16.280;2024-01-10T12:24:43;26.77;;;14.18;;
54787;SDS011;59598;48.112;16.280;2024-01-10T12:27:23;27.83;;;15.40;;
54787;SDS011;59598;48.112;16.280;2024-01-10T12:29:56;29.38;;;14.23;;
54787;SDS011;59598;48.112;16.280;2024-01-10T12:32:28;30.60;;;15.20;;
54787;SDS011;59598;48.112;16.280;2024-01-10T12:35:03;27.02;;;13.65;;
54787;SDS011;59598;48.112;16.280;2024-01-10T12:37:39;31.70;;;14.77;;
54787;SDS011;59598;48.112;16.280;2024-01-10T12:40:11;27.65;;;13.38;;
54787;SDS011;59598;48.112;16.280;2024-01-10T12:42:46;25.05;;;12.93;;
54787;SDS011;59598;48.112;16.280;2024-01-10T12:45:22;23.42;;;13.55;;
54787;SDS011;59598;48.112;16.280;2024-01-10T12:47:53;24.20;;;12.38;;
54787;SDS011;59598;48.112;16.280;2024-01-10T12:50:28;20.50;;;11.70;;
54787;SDS011;59598;48.112;16.280;2024-01-10T12:52:59;24.90;;;12.65;;
54787;SDS011;59598;48.112;16.280;2024-01-10T12:55:33;23.60;;;11.90;;
54787;SDS011;59598;48.112;16.280;2024-01-10T12:58:04;23.38;;;11.82;;
54787;SDS011;59598;48.112;16.280;2024-01-10T13:00:41;25.80;;;12.73;;
54787;SDS011;59598;48.112;16.280;2024-01-10T13:03:13;25.23;;;12.98;;
54787;SDS011;59598;48.112;16.280;2024-01-10T13:05:44;23.67;;;12.85;;
54787;SDS011;59598;48.112;16.280;2024-01-10T13:08:18;27.13;;;13.13;;
54787;SDS011;59598;48.112;16.280;2024-01-10T13:13:23;21.30;;;11.80;;
54787;SDS011;59598;48.112;16.280;2024-01-10T13:15:55;21.20;;;12.00;;
54787;SDS011;59598;48.112;16.280;2024-01-10T13:18:28;25.63;;;12.38;;
54787;SDS011;59598;48.112;16.280;2024-01-10T13:20:59;27.33;;;13.05;;
54787;SDS011;59598;48.112;16.280;2024-01-10T13:23:31;26.48;;;12.70;;
54787;SDS011;59598;48.112;16.280;2024-01-10T13:26:03;21.90;;;13.23;;
54787;SDS011;59598;48.112;16.280;2024-01-10T13:28:40;22.77;;;12.75;;
54787;SDS011;59598;48.112;16.280;2024-01-10T13:33:43;20.73;;;11.60;;
54787;SDS011;59598;48.112;16.280;2024-01-10T13:36:14;20.00;;;10.82;;
54787;SDS011;59598;48.112;16.280;2024-01-10T13:38:45;21.90;;;11.68;;
54787;SDS011;59598;48.112;16.280;2024-01-10T13:41:17;25.08;;;12.43;;
54787;SDS011;59598;48.112;16.280;2024-01-10T13:43:49;23.80;;;11.63;;
54787;SDS011;59598;48.112;16.280;2024-01-10T13:46:20;20.30;;;11.13;;
54787;SDS011;59598;48.112;16.280;2024-01-10T13:48:51;24.17;;;11.77;;
54787;SDS011;59598;48.112;16.280;2024-01-10T13:51:23;20.15;;;11.00;;
54787;SDS011;59598;48.112;16.280;2024-01-10T13:53:54;21.95;;;11.85;;
54787;SDS011;59598;48.112;16.280;2024-01-10T13:56:25;26.63;;;11.75;;
54787;SDS011;59598;48.112;16.280;2024-01-10T13:58:58;23.40;;;11.68;;
54787;SDS011;59598;48.112;16.280;2024-01-10T14:01:30;19.63;;;11.18;;
54787;SDS011;59598;48.112;16.280;2024-01-10T14:04:02;23.75;;;12.60;;
54787;SDS011;59598;48.112;16.280;2024-01-10T14:06:33;25.40;;;12.35;;
54787;SDS011;59598;48.112;16.280;2024-01-10T14:09:07;22.80;;;12.35;;
54787;SDS011;59598;48.112;16.280;2024-01-10T14:11:40;20.30;;;10.37;;
54787;SDS011;59598;48.112;16.280;2024-01-10T14:14:11;20.83;;;10.80;;
54787;SDS011;59598;48.112;16.280;2024-01-10T14:16:46;20.85;;;11.13;;
54787;SDS011;59598;48.112;16.280;2024-01-10T14:19:18;27.45;;;12.30;;
54787;SDS011;59598;48.112;16.280;2024-01-10T14:21:49;24.13;;;11.82;;
54787;SDS011;59598;48.112;16.280;2024-01-10T14:26:57;22.55;;;12.85;;
54787;SDS011;59598;48.112;16.280;2024-01-10T14:29:29;21.33;;;11.70;;
54787;SDS011;59598;48.112;16.280;2024-01-10T14:32:00;18.50;;;11.15;;
54787;SDS011;59598;48.112;16.280;2024-01-10T14:34:38;25.60;;;11.70;;
54787;SDS011;59598;48.112;16.280;2024-01-10T14:37:11;21.40;;;11.77;;
54787;SDS011;59598;48.112;16.280;2024-01-10T14:39:42;22.23;;;11.38;;
54787;SDS011;59598;48.112;16.280;2024-01-10T14:42:16;25.10;;;12.40;;
54787;SDS011;59598;48.112;16.280;2024-01-10T14:44:48;22.40;;;11.80;;
54787;SDS011;59598;48.112;16.280;2024-01-10T14:47:19;25.00;;;12.32;;
54787;SDS011;59598;48.112;16.280;2024-01-10T14:49:54;23.50;;;12.65;;
54787;SDS011;59598;48.112;16.280;2024-01-10T14:52:29;24.20;;;10.70;;
54787;SDS011;59598;48.112;16.280;2024-01-10T14:55:01;25.20;;;11.52;;
54787;SDS011;59598;48.112;16.280;2024-01-10T14:57:35;24.15;;;12.13;;
54787;SDS011;59598;48.112;16.280;2024-01-10T15:00:09;25.67;;;12.70;;
54787;SDS011;59598;48.112;16.280;2024-01-10T15:02:43;21.10;;;10.90;;
54787;SDS011;59598;48.112;16.280;2024-01-10T15:05:14;25.60;;;12.48;;
54787;SDS011;59598;48.112;16.280;2024-01-10T15:10:23;18.02;;;9.73;;
54787;SDS011;59598;48.112;16.280;2024-01-10T15:12:59;20.90;;;11.00;;
54787;SDS011;59598;48.112;16.280;2024-01-10T15:15:31;18.92;;;11.10;;
54787;SDS011;59598;48.112;16.280;2024-01-10T15:18:03;14.45;;;8.15;;
54787;SDS011;59598;48.112;16.280;2024-01-10T15:20:40;22.92;;;11.20;;
54787;SDS011;59598;48.112;16.280;2024-01-10T15:23:14;22.77;;;12.20;;
54787;SDS011;59598;48.112;16.280;2024-01-10T15:25:50;21.38;;;10.70;;
54787;SDS011;59598;48.112;16.280;2024-01-10T15:28:22;23.08;;;11.77;;